createdAt,value
2019-03-09T00:00:45.347Z,934.95
2019-03-09T00:01:45.279Z,934.93
2019-03-09T00:02:45.259Z,934.98
2019-03-09T00:03:45.254Z,934.96
2019-03-09T00:04:45.257Z,934.97
2019-03-09T00:05:45.239Z,934.96
2019-03-09T00:06:45.290Z,934.95
2019-03-09T00:07:45.231Z,934.98
2019-03-09T00:08:45.247Z,934.96
2019-03-09T00:09:45.229Z,934.94
2019-03-09T00:10:45.219Z,934.95
2019-03-09T00:11:45.243Z,934.91
2019-03-09T00:12:45.225Z,934.97
2019-03-09T00:13:45.212Z,934.97
2019-03-09T00:14:45.249Z,934.98
2019-03-09T00:15:45.195Z,935.01
2019-03-09T00:16:45.213Z,935.01
2019-03-09T00:17:45.211Z,935.02
2019-03-09T00:18:45.196Z,934.99
2019-03-09T00:19:45.200Z,935.03
2019-03-09T00:20:45.187Z,935.04
2019-03-09T00:21:45.190Z,935.03
2019-03-09T00:22:45.163Z,935.05
2019-03-09T00:23:45.163Z,935.03
2019-03-09T00:24:45.214Z,935.04
2019-03-09T00:25:45.173Z,935.03
2019-03-09T00:26:45.147Z,935.05
2019-03-09T00:27:45.155Z,935.07
2019-03-09T00:28:45.160Z,935.08
2019-03-09T00:29:45.149Z,935.10
2019-03-09T00:30:45.131Z,935.12
2019-03-09T00:31:45.129Z,935.10
2019-03-09T00:32:45.119Z,935.08
2019-03-09T00:33:45.116Z,935.11
2019-03-09T00:34:45.172Z,935.09
2019-03-09T00:35:45.130Z,935.11
2019-03-09T00:36:45.118Z,935.06
2019-03-09T00:37:45.154Z,935.06
2019-03-09T00:38:45.108Z,935.08
2019-03-09T00:39:45.116Z,935.07
2019-03-09T00:40:45.117Z,935.10
2019-03-09T00:41:45.103Z,935.06
2019-03-09T00:42:45.098Z,935.11
2019-03-09T00:43:45.087Z,935.12
2019-03-09T00:44:45.096Z,935.14
2019-03-09T00:45:45.075Z,935.14
2019-03-09T00:46:45.087Z,935.15
2019-03-09T00:47:45.058Z,935.16
2019-03-09T00:48:45.063Z,935.15
2019-03-09T00:49:45.075Z,935.16
2019-03-09T00:50:45.058Z,935.11
2019-03-09T00:51:45.044Z,935.11
2019-03-09T00:52:45.052Z,935.16
2019-03-09T00:53:45.094Z,935.11
2019-03-09T00:54:45.043Z,935.14
2019-03-09T00:55:45.023Z,935.11
2019-03-09T00:56:45.037Z,935.06
2019-03-09T00:57:45.067Z,935.09
2019-03-09T00:58:45.033Z,935.04
2019-03-09T00:59:45.017Z,935.07
2019-03-09T01:00:45.014Z,935.06
2019-03-09T01:01:45.057Z,935.06
2019-03-09T01:02:45.001Z,935.07
2019-03-09T01:03:45.010Z,935.06
2019-03-09T01:04:44.998Z,935.11
2019-03-09T01:05:44.986Z,935.11
2019-03-09T01:06:44.968Z,935.14
2019-03-09T01:07:44.986Z,935.13
2019-03-09T01:08:44.989Z,935.15
2019-03-09T01:09:44.983Z,935.17
2019-03-09T01:10:44.979Z,935.17
2019-03-09T01:11:45.001Z,935.22
2019-03-09T01:12:44.972Z,935.22
2019-03-09T01:13:44.953Z,935.26
2019-03-09T01:14:44.958Z,935.26
2019-03-09T01:15:44.948Z,935.29
2019-03-09T01:16:44.947Z,935.31
2019-03-09T01:17:44.921Z,935.32
2019-03-09T01:18:44.939Z,935.37
2019-03-09T01:19:44.927Z,935.40
2019-03-09T01:20:44.920Z,935.43
2019-03-09T01:21:44.905Z,935.42
2019-03-09T01:22:44.910Z,935.44
2019-03-09T01:23:44.920Z,935.47
2019-03-09T01:24:44.902Z,935.45
2019-03-09T01:25:44.889Z,935.51
2019-03-09T01:26:44.887Z,935.52
2019-03-09T01:27:44.885Z,935.56
2019-03-09T01:28:44.898Z,935.53
2019-03-09T01:29:44.874Z,935.56
2019-03-09T01:30:44.886Z,935.55
2019-03-09T01:31:44.861Z,935.55
2019-03-09T01:32:44.861Z,935.58
2019-03-09T01:33:44.852Z,935.58
2019-03-09T01:34:44.863Z,935.54
2019-03-09T01:35:44.843Z,935.53
2019-03-09T01:36:44.838Z,935.50
2019-03-09T01:37:44.826Z,935.50
2019-03-09T01:38:44.835Z,935.52
2019-03-09T01:39:44.831Z,935.50
2019-03-09T01:40:44.827Z,935.47
2019-03-09T01:41:44.823Z,935.49
2019-03-09T01:42:44.812Z,935.47
2019-03-09T01:43:44.854Z,935.44
2019-03-09T01:44:44.814Z,935.49
2019-03-09T01:45:44.782Z,935.46
2019-03-09T01:46:44.806Z,935.46
2019-03-09T01:47:44.793Z,935.44
2019-03-09T01:48:44.802Z,935.47
2019-03-09T01:49:44.781Z,935.47
2019-03-09T01:50:44.790Z,935.45
2019-03-09T01:51:44.767Z,935.46
2019-03-09T01:52:44.781Z,935.52
2019-03-09T01:53:44.761Z,935.51
2019-03-09T01:54:44.761Z,935.52
2019-03-09T01:55:44.763Z,935.55
2019-03-09T01:56:44.754Z,935.55
2019-03-09T01:57:44.750Z,935.57
2019-03-09T01:58:44.755Z,935.62
2019-03-09T01:59:44.748Z,935.61
2019-03-09T02:00:44.749Z,935.64
2019-03-09T02:01:44.709Z,935.65
2019-03-09T02:02:44.728Z,935.64
2019-03-09T02:03:44.723Z,935.64
2019-03-09T02:04:44.761Z,935.64
2019-03-09T02:05:44.698Z,935.64
2019-03-09T02:06:44.694Z,935.64
2019-03-09T02:07:44.710Z,935.65
2019-03-09T02:08:44.690Z,935.69
2019-03-09T02:09:44.688Z,935.63
2019-03-09T02:10:44.675Z,935.62
2019-03-09T02:11:44.701Z,935.61
2019-03-09T02:12:44.685Z,935.66
2019-03-09T02:13:44.678Z,935.63
2019-03-09T02:14:44.650Z,935.62
2019-03-09T02:15:44.669Z,935.64
2019-03-09T02:16:44.660Z,935.59
2019-03-09T02:17:44.645Z,935.62
2019-03-09T02:18:44.646Z,935.58
2019-03-09T02:19:44.686Z,935.63
2019-03-09T02:20:44.677Z,935.55
2019-03-09T02:21:44.627Z,935.56
2019-03-09T02:22:44.631Z,935.53
2019-03-09T02:23:44.622Z,935.53
2019-03-09T02:24:44.622Z,935.51
2019-03-09T02:25:44.608Z,935.50
2019-03-09T02:26:44.607Z,935.50
2019-03-09T02:27:44.641Z,935.48
2019-03-09T02:28:44.587Z,935.52
2019-03-09T02:29:44.595Z,935.51
2019-03-09T02:30:44.595Z,935.50
2019-03-09T02:31:44.603Z,935.50
2019-03-09T02:32:44.588Z,935.48
2019-03-09T02:33:44.575Z,935.48
2019-03-09T02:34:44.576Z,935.46
2019-03-09T02:35:44.547Z,935.47
2019-03-09T02:36:44.555Z,935.44
2019-03-09T02:37:44.562Z,935.47
2019-03-09T02:38:44.541Z,935.45
2019-03-09T02:39:44.518Z,935.50
2019-03-09T02:40:44.574Z,935.50
2019-03-09T02:41:44.534Z,935.49
2019-03-09T02:42:44.509Z,935.52
2019-03-09T02:43:44.535Z,935.53
2019-03-09T02:44:44.500Z,935.50
2019-03-09T02:45:44.521Z,935.49
2019-03-09T02:46:44.494Z,935.50
2019-03-09T02:47:44.497Z,935.46
2019-03-09T02:48:44.504Z,935.45
2019-03-09T02:49:44.482Z,935.46
2019-03-09T02:50:44.474Z,935.44
2019-03-09T02:51:44.471Z,935.43
2019-03-09T02:52:44.474Z,935.44
2019-03-09T02:53:44.460Z,935.39
2019-03-09T02:54:44.479Z,935.39
2019-03-09T02:55:44.449Z,935.42
2019-03-09T02:56:44.516Z,935.44
2019-03-09T02:57:44.452Z,935.43
2019-03-09T02:58:44.451Z,935.40
2019-03-09T02:59:44.420Z,935.40
2019-03-09T03:00:44.426Z,935.44
2019-03-09T03:01:44.436Z,935.47
2019-03-09T03:02:44.418Z,935.43
2019-03-09T03:03:44.404Z,935.47
2019-03-09T03:04:44.393Z,935.46
2019-03-09T03:05:44.402Z,935.41
2019-03-09T03:06:44.399Z,935.43
2019-03-09T03:07:44.399Z,935.40
2019-03-09T03:08:44.403Z,935.43
2019-03-09T03:09:44.395Z,935.46
2019-03-09T03:10:44.381Z,935.44
2019-03-09T03:11:44.375Z,935.47
2019-03-09T03:12:44.370Z,935.44
2019-03-09T03:13:44.382Z,935.47
2019-03-09T03:14:44.369Z,935.48
2019-03-09T03:15:44.344Z,935.45
2019-03-09T03:16:44.386Z,935.43
2019-03-09T03:17:44.351Z,935.41
2019-03-09T03:18:44.315Z,935.43
2019-03-09T03:19:44.347Z,935.38
2019-03-09T03:20:44.317Z,935.35
2019-03-09T03:21:45.366Z,935.36
2019-03-09T03:22:44.306Z,935.34
2019-03-09T03:23:44.305Z,935.34
2019-03-09T03:24:44.529Z,935.32
2019-03-09T03:25:44.294Z,935.38
2019-03-09T03:26:44.280Z,935.37
2019-03-09T03:27:44.296Z,935.33
2019-03-09T03:28:44.283Z,935.33
2019-03-09T03:29:44.325Z,935.28
2019-03-09T03:30:44.268Z,935.26
2019-03-09T03:31:44.261Z,935.22
2019-03-09T03:32:44.248Z,935.22
2019-03-09T03:33:44.289Z,935.17
2019-03-09T03:34:44.287Z,935.13
2019-03-09T03:35:44.259Z,935.13
2019-03-09T03:36:44.235Z,935.11
2019-03-09T03:37:44.235Z,935.09
2019-03-09T03:38:44.237Z,935.10
2019-03-09T03:39:44.229Z,935.09
2019-03-09T03:40:44.211Z,935.05
2019-03-09T03:41:44.212Z,935.02
2019-03-09T03:42:44.208Z,935.06
2019-03-09T03:43:44.183Z,935.03
2019-03-09T03:44:44.204Z,935.04
2019-03-09T03:45:44.202Z,935.02
2019-03-09T03:46:44.187Z,935.02
2019-03-09T03:47:44.171Z,935.04
2019-03-09T03:48:44.173Z,935.01
2019-03-09T03:49:44.163Z,935.04
2019-03-09T03:50:44.172Z,935.07
2019-03-09T03:51:44.160Z,935.07
2019-03-09T03:52:44.154Z,935.06
2019-03-09T03:53:44.139Z,935.04
2019-03-09T03:54:44.189Z,935.05
2019-03-09T03:55:44.130Z,935.06
2019-03-09T03:56:44.135Z,934.99
2019-03-09T03:57:44.133Z,935.02
2019-03-09T03:58:44.134Z,935.01
2019-03-09T03:59:44.133Z,935.00
2019-03-09T04:00:44.095Z,935.03
2019-03-09T04:01:44.211Z,935.03
2019-03-09T04:02:44.092Z,935.02
2019-03-09T04:03:44.133Z,935.05
2019-03-09T04:04:44.136Z,935.05
2019-03-09T04:05:44.101Z,935.04
2019-03-09T04:06:44.119Z,935.01
2019-03-09T04:07:44.169Z,935.04
2019-03-09T04:08:44.060Z,935.06
2019-03-09T04:09:44.070Z,935.01
2019-03-09T04:10:44.061Z,935.03
2019-03-09T04:11:44.040Z,935.10
2019-03-09T04:12:44.060Z,935.12
2019-03-09T04:13:44.053Z,935.14
2019-03-09T04:14:44.021Z,935.14
2019-03-09T04:15:44.013Z,935.16
2019-03-09T04:16:44.038Z,935.16
2019-03-09T04:17:44.116Z,935.16
2019-03-09T04:18:44.009Z,935.14
2019-03-09T04:19:43.988Z,935.09
2019-03-09T04:20:43.996Z,935.08
2019-03-09T04:21:43.998Z,935.05
2019-03-09T04:22:43.990Z,935.04
2019-03-09T04:23:43.991Z,935.06
2019-03-09T04:24:43.992Z,935.04
2019-03-09T04:25:43.988Z,934.98
2019-03-09T04:26:43.980Z,934.96
2019-03-09T04:27:44.066Z,934.98
2019-03-09T04:28:43.981Z,934.98
2019-03-09T04:29:43.962Z,934.98
2019-03-09T04:30:43.946Z,935.00
2019-03-09T04:31:43.953Z,935.01
2019-03-09T04:32:43.914Z,935.01
2019-03-09T04:33:43.913Z,935.03
2019-03-09T04:34:43.938Z,935.01
2019-03-09T04:35:43.931Z,935.01
2019-03-09T04:36:43.919Z,935.04
2019-03-09T04:37:43.914Z,934.97
2019-03-09T04:38:43.912Z,934.99
2019-03-09T04:39:43.911Z,934.97
2019-03-09T04:40:43.894Z,934.95
2019-03-09T04:41:43.886Z,934.97
2019-03-09T04:42:43.897Z,934.94
2019-03-09T04:43:43.872Z,934.97
2019-03-09T04:44:43.865Z,934.96
2019-03-09T04:45:43.860Z,935.01
2019-03-09T04:46:43.856Z,934.97
2019-03-09T04:47:43.851Z,934.98
2019-03-09T04:48:43.847Z,934.97
2019-03-09T04:49:43.896Z,934.98
2019-03-09T04:50:43.843Z,934.99
2019-03-09T04:51:43.855Z,934.92
2019-03-09T04:52:43.839Z,934.95
2019-03-09T04:53:44.110Z,934.99
2019-03-09T04:54:43.799Z,934.97
2019-03-09T04:55:43.822Z,934.95
2019-03-09T04:56:43.805Z,934.91
2019-03-09T04:57:43.803Z,934.90
2019-03-09T04:58:43.799Z,934.85
2019-03-09T04:59:43.872Z,934.84
2019-03-09T05:00:43.828Z,934.81
2019-03-09T05:01:43.775Z,934.79
2019-03-09T05:02:43.749Z,934.82
2019-03-09T05:03:43.774Z,934.80
2019-03-09T05:04:43.908Z,934.79
2019-03-09T05:05:43.807Z,934.80
2019-03-09T05:06:43.745Z,934.81
2019-03-09T05:07:43.735Z,934.76
2019-03-09T05:08:43.729Z,934.79
2019-03-09T05:09:43.743Z,934.77
2019-03-09T05:10:43.744Z,934.76
2019-03-09T05:11:43.700Z,934.77
2019-03-09T05:12:43.723Z,934.71
2019-03-09T05:13:43.709Z,934.72
2019-03-09T05:14:43.715Z,934.67
2019-03-09T05:15:43.681Z,934.69
2019-03-09T05:16:43.711Z,934.67
2019-03-09T05:17:43.678Z,934.63
2019-03-09T05:18:43.667Z,934.64
2019-03-09T05:19:43.683Z,934.61
2019-03-09T05:20:43.697Z,934.64
2019-03-09T05:21:43.772Z,934.61
2019-03-09T05:22:43.657Z,934.63
2019-03-09T05:23:43.666Z,934.61
2019-03-09T05:24:43.641Z,934.61
2019-03-09T05:25:43.647Z,934.61
2019-03-09T05:26:44.971Z,934.64
2019-03-09T05:27:43.624Z,934.66
2019-03-09T05:28:43.620Z,934.64
2019-03-09T05:29:43.612Z,934.63
2019-03-09T05:30:43.597Z,934.68
2019-03-09T05:31:43.624Z,934.67
2019-03-09T05:32:43.751Z,934.71
2019-03-09T05:33:43.636Z,934.70
2019-03-09T05:34:43.805Z,934.68
2019-03-09T05:35:43.631Z,934.69
2019-03-09T05:36:43.570Z,934.68
2019-03-09T05:37:43.585Z,934.68
2019-03-09T05:38:43.767Z,934.69
2019-03-09T05:39:43.567Z,934.69
2019-03-09T05:40:43.562Z,934.66
2019-03-09T05:41:43.551Z,934.67
2019-03-09T05:42:43.542Z,934.64
2019-03-09T05:43:43.532Z,934.61
2019-03-09T05:44:43.570Z,934.59
2019-03-09T05:45:43.521Z,934.59
2019-03-09T05:46:43.501Z,934.57
2019-03-09T05:47:43.523Z,934.54
2019-03-09T05:48:43.556Z,934.55
2019-03-09T05:49:43.522Z,934.54
2019-03-09T05:50:43.496Z,934.62
2019-03-09T05:51:43.498Z,934.62
2019-03-09T05:52:43.478Z,934.67
2019-03-09T05:53:43.484Z,934.64
2019-03-09T05:54:43.461Z,934.67
2019-03-09T05:55:43.486Z,934.68
2019-03-09T05:56:43.461Z,934.63
2019-03-09T05:57:43.456Z,934.66
2019-03-09T05:58:43.451Z,934.67
2019-03-09T05:59:43.426Z,934.64
2019-03-09T06:00:43.447Z,934.65
2019-03-09T06:01:43.442Z,934.64
2019-03-09T06:02:43.441Z,934.65
2019-03-09T06:03:43.430Z,934.65
2019-03-09T06:04:43.409Z,934.66
2019-03-09T06:05:43.417Z,934.66
2019-03-09T06:06:43.398Z,934.59
2019-03-09T06:07:43.409Z,934.57
2019-03-09T06:08:43.406Z,934.62
2019-03-09T06:09:43.378Z,934.57
2019-03-09T06:10:43.390Z,934.57
2019-03-09T06:11:43.395Z,934.54
2019-03-09T06:12:43.371Z,934.52
2019-03-09T06:13:43.370Z,934.49
2019-03-09T06:14:43.371Z,934.49
2019-03-09T06:15:43.356Z,934.50
2019-03-09T06:16:43.333Z,934.50
2019-03-09T06:17:43.349Z,934.47
2019-03-09T06:18:43.338Z,934.43
2019-03-09T06:19:43.319Z,934.47
2019-03-09T06:20:43.322Z,934.43
2019-03-09T06:21:43.322Z,934.36
2019-03-09T06:22:43.311Z,934.34
2019-03-09T06:23:43.314Z,934.33
2019-03-09T06:24:43.297Z,934.30
2019-03-09T06:25:43.308Z,934.29
2019-03-09T06:26:43.295Z,934.34
2019-03-09T06:27:43.288Z,934.40
2019-03-09T06:28:43.321Z,934.39
2019-03-09T06:29:43.262Z,934.38
2019-03-09T06:30:43.270Z,934.39
2019-03-09T06:31:43.315Z,934.42
2019-03-09T06:32:43.263Z,934.35
2019-03-09T06:33:43.409Z,934.33
2019-03-09T06:34:43.242Z,934.30
2019-03-09T06:35:43.248Z,934.32
2019-03-09T06:36:43.232Z,934.30
2019-03-09T06:37:43.230Z,934.32
2019-03-09T06:38:43.220Z,934.32
2019-03-09T06:39:43.226Z,934.36
2019-03-09T06:40:43.213Z,934.36
2019-03-09T06:41:43.194Z,934.38
2019-03-09T06:42:43.185Z,934.37
2019-03-09T06:43:43.209Z,934.37
2019-03-09T06:44:43.236Z,934.34
2019-03-09T06:45:43.180Z,934.31
2019-03-09T06:46:43.170Z,934.26
2019-03-09T06:47:43.184Z,934.25
2019-03-09T06:48:43.178Z,934.24
2019-03-09T06:49:43.160Z,934.22
2019-03-09T06:50:43.150Z,934.19
2019-03-09T06:51:43.158Z,934.21
2019-03-09T06:52:43.150Z,934.21
2019-03-09T06:53:43.128Z,934.22
2019-03-09T06:54:43.146Z,934.19
2019-03-09T06:55:43.283Z,934.14
2019-03-09T06:56:43.134Z,934.20
2019-03-09T06:57:43.122Z,934.12
2019-03-09T06:58:43.116Z,934.12
2019-03-09T06:59:43.089Z,934.12
2019-03-09T07:00:43.175Z,934.09
2019-03-09T07:01:43.101Z,934.07
2019-03-09T07:02:43.068Z,934.12
2019-03-09T07:03:43.086Z,934.10
2019-03-09T07:04:43.074Z,934.10
2019-03-09T07:05:43.064Z,934.15
2019-03-09T07:06:43.053Z,934.23
2019-03-09T07:07:43.041Z,934.22
2019-03-09T07:08:43.058Z,934.24
2019-03-09T07:09:43.047Z,934.24
2019-03-09T07:10:43.045Z,934.25
2019-03-09T07:11:43.186Z,934.28
2019-03-09T07:12:43.012Z,934.25
2019-03-09T07:13:52.148Z,934.23
2019-03-09T07:14:43.018Z,934.23
2019-03-09T07:15:42.994Z,934.18
2019-03-09T07:16:42.986Z,934.14
2019-03-09T07:17:43.174Z,934.14
2019-03-09T07:18:42.979Z,934.07
2019-03-09T07:19:42.983Z,934.12
2019-03-09T07:20:42.999Z,934.10
2019-03-09T07:21:42.968Z,934.12
2019-03-09T07:22:42.983Z,934.13
2019-03-09T07:23:42.945Z,934.10
2019-03-09T07:24:42.966Z,934.12
2019-03-09T07:25:42.956Z,934.11
2019-03-09T07:26:42.944Z,934.09
2019-03-09T07:27:42.947Z,934.11
2019-03-09T07:28:42.937Z,934.08
2019-03-09T07:29:42.936Z,934.10
2019-03-09T07:30:42.915Z,934.09
2019-03-09T07:31:44.099Z,934.04
2019-03-09T07:32:42.897Z,934.07
2019-03-09T07:33:42.997Z,934.02
2019-03-09T07:34:42.906Z,934.00
2019-03-09T07:35:42.879Z,933.97
2019-03-09T07:36:42.886Z,933.95
2019-03-09T07:37:42.884Z,933.96
2019-03-09T07:38:42.865Z,933.89
2019-03-09T07:39:42.845Z,933.95
2019-03-09T07:40:42.848Z,933.94
2019-03-09T07:41:42.883Z,933.92
2019-03-09T07:42:42.835Z,933.94
2019-03-09T07:43:42.860Z,933.95
2019-03-09T07:44:42.834Z,933.98
2019-03-09T07:45:42.834Z,933.99
2019-03-09T07:46:42.821Z,933.99
2019-03-09T07:47:42.800Z,933.99
2019-03-09T07:48:42.862Z,934.00
2019-03-09T07:49:42.815Z,934.01
2019-03-09T07:50:42.781Z,934.02
2019-03-09T07:51:42.778Z,934.03
2019-03-09T07:52:42.782Z,934.05
2019-03-09T07:53:42.782Z,934.03
2019-03-09T07:54:42.771Z,934.07
2019-03-09T07:55:42.766Z,934.06
2019-03-09T07:56:42.771Z,934.05
2019-03-09T07:57:42.743Z,934.05
2019-03-09T07:58:42.785Z,934.03
2019-03-09T07:59:42.741Z,934.07
2019-03-09T08:00:42.724Z,934.05
2019-03-09T08:01:42.737Z,934.06
2019-03-09T08:02:42.718Z,934.07
2019-03-09T08:03:42.714Z,934.14
2019-03-09T08:04:42.711Z,934.14
2019-03-09T08:05:42.764Z,934.18
2019-03-09T08:06:42.690Z,934.19
2019-03-09T08:07:42.703Z,934.19
2019-03-09T08:08:42.697Z,934.19
2019-03-09T08:09:42.679Z,934.20
2019-03-09T08:10:42.652Z,934.16
2019-03-09T08:11:42.678Z,934.16
2019-03-09T08:12:42.650Z,934.15
2019-03-09T08:13:42.700Z,934.16
2019-03-09T08:14:42.688Z,934.18
2019-03-09T08:15:42.811Z,934.18
2019-03-09T08:16:42.626Z,934.19
2019-03-09T08:17:42.651Z,934.18
2019-03-09T08:18:42.637Z,934.20
2019-03-09T08:19:42.635Z,934.26
2019-03-09T08:20:42.618Z,934.23
2019-03-09T08:21:42.604Z,934.24
2019-03-09T08:22:42.605Z,934.23
2019-03-09T08:23:42.581Z,934.27
2019-03-09T08:24:42.634Z,934.31
2019-03-09T08:25:42.586Z,934.32
2019-03-09T08:26:42.562Z,934.34
2019-03-09T08:27:42.574Z,934.37
2019-03-09T08:28:42.617Z,934.41
2019-03-09T08:29:42.583Z,934.36
2019-03-09T08:30:42.558Z,934.31
2019-03-09T08:31:42.541Z,934.31
2019-03-09T08:32:42.536Z,934.31
2019-03-09T08:33:42.524Z,934.28
2019-03-09T08:34:42.505Z,934.24
2019-03-09T08:35:42.532Z,934.27
2019-03-09T08:36:42.512Z,934.26
2019-03-09T08:37:42.489Z,934.25
2019-03-09T08:38:42.507Z,934.23
2019-03-09T08:39:42.492Z,934.22
2019-03-09T08:40:42.838Z,934.22
2019-03-09T08:41:42.469Z,934.21
2019-03-09T08:42:42.483Z,934.23
2019-03-09T08:43:42.469Z,934.20
2019-03-09T08:44:42.473Z,934.18
2019-03-09T08:45:42.504Z,934.16
2019-03-09T08:46:42.472Z,934.16
2019-03-09T08:47:51.562Z,934.13
2019-03-09T08:48:42.602Z,934.10
2019-03-09T08:49:42.435Z,934.12
2019-03-09T08:50:42.444Z,934.15
2019-03-09T08:51:42.472Z,934.17
2019-03-09T08:52:42.418Z,934.18
2019-03-09T08:53:42.408Z,934.17
2019-03-09T08:54:42.386Z,934.21
2019-03-09T08:55:42.407Z,934.25
2019-03-09T08:56:42.394Z,934.23
2019-03-09T08:57:42.435Z,934.26
2019-03-09T08:58:42.398Z,934.27
2019-03-09T08:59:42.482Z,934.25
2019-03-09T09:00:42.386Z,934.27
2019-03-09T09:01:42.459Z,934.27
2019-03-09T09:02:42.395Z,934.28
2019-03-09T09:03:42.350Z,934.32
2019-03-09T09:04:42.340Z,934.36
2019-03-09T09:05:42.329Z,934.38
2019-03-09T09:06:42.342Z,934.39
2019-03-09T09:07:42.327Z,934.38
2019-03-09T09:08:42.326Z,934.38
2019-03-09T09:09:42.298Z,934.42
2019-03-09T09:10:42.307Z,934.44
2019-03-09T09:11:42.297Z,934.47
2019-03-09T09:12:42.288Z,934.49
2019-03-09T09:13:42.287Z,934.45
2019-03-09T09:14:42.276Z,934.49
2019-03-09T09:15:42.310Z,934.46
2019-03-09T09:16:42.262Z,934.44
2019-03-09T09:17:42.268Z,934.45
2019-03-09T09:18:42.241Z,934.47
2019-03-09T09:19:42.237Z,934.48
2019-03-09T09:20:42.257Z,934.47
2019-03-09T09:21:42.307Z,934.48
2019-03-09T09:22:42.235Z,934.48
2019-03-09T09:23:42.215Z,934.52
2019-03-09T09:24:42.200Z,934.48
2019-03-09T09:25:42.205Z,934.52
2019-03-09T09:26:42.205Z,934.52
2019-03-09T09:27:42.228Z,934.55
2019-03-09T09:28:42.206Z,934.58
2019-03-09T09:29:42.200Z,934.58
2019-03-09T09:30:42.196Z,934.58
2019-03-09T09:31:42.331Z,934.64
2019-03-09T09:32:42.169Z,934.61
2019-03-09T09:33:42.169Z,934.61
2019-03-09T09:34:42.129Z,934.62
2019-03-09T09:35:42.143Z,934.62
2019-03-09T09:36:42.139Z,934.65
2019-03-09T09:37:42.137Z,934.66
2019-03-09T09:38:42.133Z,934.70
2019-03-09T09:39:42.154Z,934.72
2019-03-09T09:40:42.175Z,934.71
2019-03-09T09:41:42.085Z,934.69
2019-03-09T09:42:42.101Z,934.73
2019-03-09T09:43:42.109Z,934.77
2019-03-09T09:44:42.100Z,934.79
2019-03-09T09:45:42.123Z,934.82
2019-03-09T09:46:42.061Z,934.83
2019-03-09T09:47:42.708Z,934.84
2019-03-09T09:48:42.058Z,934.84
2019-03-09T09:49:42.061Z,934.84
2019-03-09T09:50:42.051Z,934.86
2019-03-09T09:51:42.039Z,934.86
2019-03-09T09:52:42.031Z,934.85
2019-03-09T09:53:42.032Z,934.86
2019-03-09T09:54:42.031Z,934.86
2019-03-09T09:55:42.014Z,934.92
2019-03-09T09:56:42.038Z,934.89
2019-03-09T09:57:42.024Z,934.90
2019-03-09T09:58:42.004Z,934.91
2019-03-09T09:59:41.991Z,934.94
2019-03-09T10:00:42.034Z,934.92
2019-03-09T10:01:41.982Z,934.93
2019-03-09T10:02:42.028Z,934.95
2019-03-09T10:03:42.021Z,934.95
2019-03-09T10:04:41.973Z,934.96
2019-03-09T10:05:41.983Z,934.95
2019-03-09T10:06:41.950Z,934.97
2019-03-09T10:07:41.945Z,934.95
2019-03-09T10:08:41.939Z,934.98
2019-03-09T10:09:41.928Z,935.00
2019-03-09T10:10:41.950Z,934.99
2019-03-09T10:11:41.950Z,935.01
2019-03-09T10:12:41.924Z,935.02
2019-03-09T10:13:41.909Z,935.03
2019-03-09T10:14:41.912Z,935.06
2019-03-09T10:15:41.901Z,935.06
2019-03-09T10:16:41.913Z,935.10
2019-03-09T10:17:41.896Z,935.11
2019-03-09T10:18:41.938Z,935.11
2019-03-09T10:19:41.877Z,935.13
2019-03-09T10:20:41.873Z,935.11
2019-03-09T10:21:41.878Z,935.13
2019-03-09T10:22:41.870Z,935.13
2019-03-09T10:23:41.850Z,935.16
2019-03-09T10:24:41.856Z,935.18
2019-03-09T10:25:41.842Z,935.19
2019-03-09T10:26:41.841Z,935.16
2019-03-09T10:27:41.860Z,935.17
2019-03-09T10:28:41.842Z,935.20
2019-03-09T10:29:41.845Z,935.20
2019-03-09T10:30:41.825Z,935.15
2019-03-09T10:31:41.866Z,935.22
2019-03-09T10:32:41.815Z,935.18
2019-03-09T10:33:41.830Z,935.17
2019-03-09T10:34:41.797Z,935.21
2019-03-09T10:35:41.793Z,935.22
2019-03-09T10:36:41.795Z,935.21
2019-03-09T10:37:41.782Z,935.22
2019-03-09T10:38:41.839Z,935.24
2019-03-09T10:39:41.805Z,935.23
2019-03-09T10:40:41.773Z,935.31
2019-03-09T10:41:41.778Z,935.32
2019-03-09T10:42:41.820Z,935.33
2019-03-09T10:43:41.738Z,935.34
2019-03-09T10:44:41.742Z,935.30
2019-03-09T10:45:41.740Z,935.36
2019-03-09T10:46:41.785Z,935.36
2019-03-09T10:47:41.774Z,935.39
2019-03-09T10:48:41.733Z,935.36
2019-03-09T10:49:41.719Z,935.40
2019-03-09T10:50:41.708Z,935.42
2019-03-09T10:51:41.722Z,935.42
2019-03-09T10:52:41.704Z,935.43
2019-03-09T10:53:41.711Z,935.45
2019-03-09T10:54:41.706Z,935.44
2019-03-09T10:55:42.618Z,935.45
2019-03-09T10:56:41.685Z,935.46
2019-03-09T10:57:41.700Z,935.44
2019-03-09T10:58:41.686Z,935.43
2019-03-09T10:59:41.685Z,935.46
2019-03-09T11:00:41.680Z,935.45
2019-03-09T11:01:41.671Z,935.47
2019-03-09T11:02:41.712Z,935.48
2019-03-09T11:03:41.644Z,935.46
2019-03-09T11:04:41.644Z,935.47
2019-03-09T11:05:41.641Z,935.44
2019-03-09T11:06:41.662Z,935.47
2019-03-09T11:07:41.633Z,935.46
2019-03-09T11:08:41.636Z,935.43
2019-03-09T11:09:41.633Z,935.43
2019-03-09T11:10:41.622Z,935.42
2019-03-09T11:11:41.625Z,935.44
2019-03-09T11:12:41.621Z,935.47
2019-03-09T11:13:51.214Z,935.42
2019-03-09T11:14:41.600Z,935.46
2019-03-09T11:15:41.590Z,935.44
2019-03-09T11:16:41.590Z,935.46
2019-03-09T11:17:41.602Z,935.43
2019-03-09T11:18:41.588Z,935.40
2019-03-09T11:19:41.583Z,935.33
2019-03-09T11:20:41.575Z,935.32
2019-03-09T11:21:41.581Z,935.31
2019-03-09T11:22:41.555Z,935.27
2019-03-09T11:23:41.642Z,935.23
2019-03-09T11:24:41.551Z,935.22
2019-03-09T11:25:41.642Z,935.24
2019-03-09T11:26:41.544Z,935.22
2019-03-09T11:27:41.535Z,935.21
2019-03-09T11:28:41.546Z,935.21
2019-03-09T11:29:41.532Z,935.20
2019-03-09T11:30:41.512Z,935.20
2019-03-09T11:31:41.525Z,935.20
2019-03-09T11:32:42.748Z,935.23
2019-03-09T11:33:41.734Z,935.22
2019-03-09T11:34:46.562Z,935.22
2019-03-09T11:35:41.529Z,935.24
2019-03-09T11:36:41.510Z,935.22
2019-03-09T11:37:41.500Z,935.24
2019-03-09T11:38:41.469Z,935.22
2019-03-09T11:39:41.496Z,935.22
2019-03-09T11:40:41.479Z,935.21
2019-03-09T11:41:41.482Z,935.24
2019-03-09T11:42:41.472Z,935.25
2019-03-09T11:43:41.455Z,935.29
2019-03-09T11:44:41.460Z,935.28
2019-03-09T11:45:41.444Z,935.28
2019-03-09T11:46:41.446Z,935.31
2019-03-09T11:47:41.464Z,935.32
2019-03-09T11:48:41.454Z,935.36
2019-03-09T11:49:41.446Z,935.34
2019-03-09T11:50:41.446Z,935.34
2019-03-09T11:51:41.435Z,935.36
2019-03-09T11:52:41.425Z,935.43
2019-03-09T11:53:41.423Z,935.39
2019-03-09T11:54:41.416Z,935.41
2019-03-09T11:55:41.452Z,935.38
2019-03-09T11:56:41.394Z,935.38
2019-03-09T11:57:41.390Z,935.36
2019-03-09T11:58:41.411Z,935.36
2019-03-09T11:59:41.404Z,935.35
2019-03-09T12:00:41.417Z,935.35
2019-03-09T12:01:41.413Z,935.33
2019-03-09T12:02:41.383Z,935.36
2019-03-09T12:03:41.388Z,935.37
2019-03-09T12:04:46.894Z,935.39
2019-03-09T12:05:41.373Z,935.41
2019-03-09T12:06:41.423Z,935.39
2019-03-09T12:07:41.375Z,935.36
2019-03-09T12:08:41.363Z,935.39
2019-03-09T12:09:41.355Z,935.38
2019-03-09T12:10:41.360Z,935.39
2019-03-09T12:11:41.371Z,935.36
2019-03-09T12:12:41.395Z,935.37
2019-03-09T12:13:41.335Z,935.34
2019-03-09T12:14:41.347Z,935.35
2019-03-09T12:15:41.349Z,935.31
2019-03-09T12:16:41.334Z,935.28
2019-03-09T12:17:41.325Z,935.31
2019-03-09T12:18:41.337Z,935.29
2019-03-09T12:19:41.319Z,935.30
2019-03-09T12:20:41.327Z,935.30
2019-03-09T12:21:41.312Z,935.27
2019-03-09T12:22:41.301Z,935.24
2019-03-09T12:23:41.323Z,935.25
2019-03-09T12:24:41.312Z,935.27
2019-03-09T12:25:41.310Z,935.25
2019-03-09T12:26:41.294Z,935.24
2019-03-09T12:27:41.314Z,935.26
2019-03-09T12:28:41.284Z,935.23